Aérodrome :
LOGIN :

S'inscrire | Disclaimer

   EN    FR    IT 

 










Légende :    VFR   VFR Marginal   IFR   IFR Intensif   IFR Très Intensif
Visi : 
Plafond : 
>= 8 km
>= 3000ft
5 à 8 km
1000 à 3000 ft
1500m à 5 km
500 à 1000 ft
800 à 1500m
200 à 500 ft
< 800m
< 200 ft
Symboles :   Orages  Brouillard  Fortes neiges  Fortes précipitations  Vent > 20 kt
SIGMETs :   Divers  Orages  Givrage  Turbulence  Onde Orograph.  Cendres Volcan.






- Altitude de l'aérodrome : 614 ft
- Code IATA : CRL


EBCI - Charleroi

DERNIER METAR :
  • 241050Z 20016KT 9999 SCT003 BKN005 10/09 Q1015 TEMPO 3000 -DZ

METARs EXPIRÉS :
  • 241020Z 20016KT 7000 -DZ SCT003 BKN005 09/09 Q1015 TEMPO 3000 -DZ
  • 240950Z 20014KT 9999 SCT003 BKN005 09/08 Q1016 TEMPO 3000 -DZ BKN006
  • 240920Z 20014KT 9999 SCT004 BKN006 08/07 Q1016 TEMPO 3000 -DZ BKN006
  • 240850Z 19013KT 7000 SCT004 BKN006 07/06 Q1017 TEMPO 3000 -DZ BKN006
  • 240820Z 18012KT 2500 -DZ SCT003 BKN005 06/05 Q1018 TEMPO 3000 -DZ BKN006
  • 240750Z 17010KT 8000 SCT006 BKN014 05/05 Q1019 TEMPO 3000 -DZ BKN006

TAF TAF EBCI
Valide du 24 à 06h jusqu'au 25 à 12h UTC


240501Z 2406/2512 17007KT 6000 -RA BKN020
BECMG 2406/2408 4000 -RADZ SCT008 BKN012
TEMPO 2407/2501 BKN008
PROB40
TEMPO 2407/2412 BKN004
BECMG 2410/2412 23018G30KT
BECMG 2501/2503 25012KT 9999 NSW SCT015



MET'MAP, la Météo Aéronautique d'un coup d'oeil ! - Copyright ORBIFLY Décembre 2007 - Disclaimer

ORBIFLY MET'MAP TEAM :

Programmation & Développement : Alexandra Zaïnal
Sur une idée originale de : Baudouin d'Aumeries
Assistance à la programmation : Marc-Olivier Méhu
Soutien technique & logistique : Manuel Goepfert

Contact : metmap@orbifly.com




SOURCES & CREDITS :

   NOAA